sensor_id;sensor_type;location;lat;lon;timestamp;temperature;humidity
55870;DHT22;41790;50.940;4.560;2023-02-11T00:01:13;6.90;85.40
55870;DHT22;41790;50.940;4.560;2023-02-11T00:03:40;6.90;85.40
55870;DHT22;41790;50.940;4.560;2023-02-11T00:06:07;6.80;85.50
55870;DHT22;41790;50.940;4.560;2023-02-11T00:08:35;6.80;85.90
55870;DHT22;41790;50.940;4.560;2023-02-11T00:11:02;6.80;85.90
55870;DHT22;41790;50.940;4.560;2023-02-11T00:13:27;6.80;85.60
55870;DHT22;41790;50.940;4.560;2023-02-11T00:15:54;6.80;85.70
55870;DHT22;41790;50.940;4.560;2023-02-11T00:18:20;6.80;85.40
55870;DHT22;41790;50.940;4.560;2023-02-11T00:20:46;6.70;85.70
55870;DHT22;41790;50.940;4.560;2023-02-11T00:23:11;6.70;86.20
55870;DHT22;41790;50.940;4.560;2023-02-11T00:25:39;6.60;86.40
55870;DHT22;41790;50.940;4.560;2023-02-11T00:28:05;6.70;86.50
55870;DHT22;41790;50.940;4.560;2023-02-11T00:30:31;6.80;85.70
55870;DHT22;41790;50.940;4.560;2023-02-11T00:32:56;6.70;86.00
55870;DHT22;41790;50.940;4.560;2023-02-11T00:35:25;6.70;85.80
55870;DHT22;41790;50.940;4.560;2023-02-11T00:37:55;6.70;86.30
55870;DHT22;41790;50.940;4.560;2023-02-11T00:40:21;6.60;86.50
55870;DHT22;41790;50.940;4.560;2023-02-11T00:42:47;6.60;86.50
55870;DHT22;41790;50.940;4.560;2023-02-11T00:45:12;6.60;86.50
55870;DHT22;41790;50.940;4.560;2023-02-11T00:47:38;6.60;86.20
55870;DHT22;41790;50.940;4.560;2023-02-11T00:50:05;6.50;86.60
55870;DHT22;41790;50.940;4.560;2023-02-11T00:52:32;6.60;86.60
55870;DHT22;41790;50.940;4.560;2023-02-11T00:54:57;6.60;86.50
55870;DHT22;41790;50.940;4.560;2023-02-11T00:57:23;6.50;86.90
55870;DHT22;41790;50.940;4.560;2023-02-11T00:59:49;6.60;86.70
55870;DHT22;41790;50.940;4.560;2023-02-11T01:02:15;6.50;87.10
55870;DHT22;41790;50.940;4.560;2023-02-11T01:04:41;6.50;87.20
55870;DHT22;41790;50.940;4.560;2023-02-11T01:07:08;6.60;87.20
55870;DHT22;41790;50.940;4.560;2023-02-11T01:09:37;6.70;86.70
55870;DHT22;41790;50.940;4.560;2023-02-11T01:12:03;6.70;86.60
55870;DHT22;41790;50.940;4.560;2023-02-11T01:14:29;6.80;86.40
55870;DHT22;41790;50.940;4.560;2023-02-11T01:16:55;6.80;86.20
55870;DHT22;41790;50.940;4.560;2023-02-11T01:19:21;6.70;86.90
55870;DHT22;41790;50.940;4.560;2023-02-11T01:21:46;6.70;86.70
55870;DHT22;41790;50.940;4.560;2023-02-11T01:24:12;6.70;86.50
55870;DHT22;41790;50.940;4.560;2023-02-11T01:26:38;6.70;86.80
55870;DHT22;41790;50.940;4.560;2023-02-11T01:29:04;6.80;86.10
55870;DHT22;41790;50.940;4.560;2023-02-11T01:31:30;6.70;86.00
55870;DHT22;41790;50.940;4.560;2023-02-11T01:33:56;6.70;86.00
55870;DHT22;41790;50.940;4.560;2023-02-11T01:36:22;6.70;86.30
55870;DHT22;41790;50.940;4.560;2023-02-11T01:38:47;6.60;86.60
55870;DHT22;41790;50.940;4.560;2023-02-11T01:41:14;6.50;87.20
55870;DHT22;41790;50.940;4.560;2023-02-11T01:43:43;6.50;87.40
55870;DHT22;41790;50.940;4.560;2023-02-11T01:46:30;6.40;87.80
55870;DHT22;41790;50.940;4.560;2023-02-11T01:49:15;6.40;87.90
55870;DHT22;41790;50.940;4.560;2023-02-11T01:51:51;6.50;87.30
55870;DHT22;41790;50.940;4.560;2023-02-11T01:54:22;6.50;87.00
55870;DHT22;41790;50.940;4.560;2023-02-11T01:57:10;6.60;87.10
55870;DHT22;41790;50.940;4.560;2023-02-11T02:05:09;7.00;86.10
55870;DHT22;41790;50.940;4.560;2023-02-11T02:08:05;6.80;86.90
55870;DHT22;41790;50.940;4.560;2023-02-11T02:10:34;6.90;86.50
55870;DHT22;41790;50.940;4.560;2023-02-11T02:13:01;7.10;86.20
55870;DHT22;41790;50.940;4.560;2023-02-11T02:15:29;6.90;86.70
55870;DHT22;41790;50.940;4.560;2023-02-11T02:32:22;7.00;87.10
55870;DHT22;41790;50.940;4.560;2023-02-11T02:37:50;6.90;87.00
55870;DHT22;41790;50.940;4.560;2023-02-11T02:40:31;7.00;87.20
55870;DHT22;41790;50.940;4.560;2023-02-11T02:42:59;7.00;87.00
55870;DHT22;41790;50.940;4.560;2023-02-11T02:45:25;7.00;86.80
55870;DHT22;41790;50.940;4.560;2023-02-11T02:47:51;7.00;87.00
55870;DHT22;41790;50.940;4.560;2023-02-11T02:50:23;7.20;86.40
55870;DHT22;41790;50.940;4.560;2023-02-11T02:53:21;7.20;86.10
55870;DHT22;41790;50.940;4.560;2023-02-11T02:59:16;7.20;86.50
55870;DHT22;41790;50.940;4.560;2023-02-11T03:04:45;7.20;86.10
55870;DHT22;41790;50.940;4.560;2023-02-11T03:07:24;7.20;86.30
55870;DHT22;41790;50.940;4.560;2023-02-11T03:10:16;7.40;85.50
55870;DHT22;41790;50.940;4.560;2023-02-11T03:12:44;7.30;85.60
55870;DHT22;41790;50.940;4.560;2023-02-11T03:15:11;7.40;85.40
55870;DHT22;41790;50.940;4.560;2023-02-11T03:17:40;7.50;84.80
55870;DHT22;41790;50.940;4.560;2023-02-11T03:20:09;7.40;85.10
55870;DHT22;41790;50.940;4.560;2023-02-11T03:22:41;7.50;85.00
55870;DHT22;41790;50.940;4.560;2023-02-11T03:25:08;7.40;85.50
55870;DHT22;41790;50.940;4.560;2023-02-11T03:32:50;7.40;85.60
55870;DHT22;41790;50.940;4.560;2023-02-11T03:35:21;7.40;85.20
55870;DHT22;41790;50.940;4.560;2023-02-11T03:37:56;7.40;85.80
55870;DHT22;41790;50.940;4.560;2023-02-11T03:40:27;7.40;86.00
55870;DHT22;41790;50.940;4.560;2023-02-11T03:42:57;7.40;86.10
55870;DHT22;41790;50.940;4.560;2023-02-11T03:45:24;7.60;85.70
55870;DHT22;41790;50.940;4.560;2023-02-11T03:47:55;7.50;85.60
55870;DHT22;41790;50.940;4.560;2023-02-11T03:50:23;7.40;86.00
55870;DHT22;41790;50.940;4.560;2023-02-11T03:52:50;7.40;86.40
55870;DHT22;41790;50.940;4.560;2023-02-11T03:55:18;7.50;86.00
55870;DHT22;41790;50.940;4.560;2023-02-11T03:57:45;7.40;86.30
55870;DHT22;41790;50.940;4.560;2023-02-11T04:00:11;7.40;86.40
55870;DHT22;41790;50.940;4.560;2023-02-11T04:02:38;7.60;86.00
55870;DHT22;41790;50.940;4.560;2023-02-11T04:05:06;7.60;85.70
55870;DHT22;41790;50.940;4.560;2023-02-11T04:07:33;7.70;86.30
55870;DHT22;41790;50.940;4.560;2023-02-11T04:09:58;7.70;85.10
55870;DHT22;41790;50.940;4.560;2023-02-11T04:12:24;7.70;85.10
55870;DHT22;41790;50.940;4.560;2023-02-11T04:14:50;7.70;85.50
55870;DHT22;41790;50.940;4.560;2023-02-11T04:17:16;7.70;85.70
55870;DHT22;41790;50.940;4.560;2023-02-11T04:19:42;7.70;85.20
55870;DHT22;41790;50.940;4.560;2023-02-11T04:22:08;7.70;85.50
55870;DHT22;41790;50.940;4.560;2023-02-11T04:24:34;7.40;86.60
55870;DHT22;41790;50.940;4.560;2023-02-11T04:27:00;7.40;86.90
55870;DHT22;41790;50.940;4.560;2023-02-11T04:29:27;7.50;86.30
55870;DHT22;41790;50.940;4.560;2023-02-11T04:31:54;7.50;86.60
55870;DHT22;41790;50.940;4.560;2023-02-11T04:34:20;7.40;86.70
55870;DHT22;41790;50.940;4.560;2023-02-11T04:36:46;7.40;87.20
55870;DHT22;41790;50.940;4.560;2023-02-11T04:39:11;7.40;87.50
55870;DHT22;41790;50.940;4.560;2023-02-11T04:41:37;7.40;86.90
55870;DHT22;41790;50.940;4.560;2023-02-11T04:44:03;7.50;86.90
55870;DHT22;41790;50.940;4.560;2023-02-11T04:46:29;7.40;87.60
55870;DHT22;41790;50.940;4.560;2023-02-11T04:48:55;7.40;87.50
55870;DHT22;41790;50.940;4.560;2023-02-11T04:51:21;7.50;87.20
55870;DHT22;41790;50.940;4.560;2023-02-11T04:53:47;7.50;87.20
55870;DHT22;41790;50.940;4.560;2023-02-11T04:56:13;7.50;87.10
55870;DHT22;41790;50.940;4.560;2023-02-11T04:58:39;7.60;86.60
55870;DHT22;41790;50.940;4.560;2023-02-11T05:01:09;7.60;86.20
55870;DHT22;41790;50.940;4.560;2023-02-11T05:03:36;7.60;86.40
55870;DHT22;41790;50.940;4.560;2023-02-11T05:06:02;7.70;86.10
55870;DHT22;41790;50.940;4.560;2023-02-11T05:08:28;7.60;86.40
55870;DHT22;41790;50.940;4.560;2023-02-11T05:10:54;7.50;86.80
55870;DHT22;41790;50.940;4.560;2023-02-11T05:13:20;7.40;87.30
55870;DHT22;41790;50.940;4.560;2023-02-11T05:15:45;7.40;87.50
55870;DHT22;41790;50.940;4.560;2023-02-11T05:18:11;7.40;87.30
55870;DHT22;41790;50.940;4.560;2023-02-11T05:20:40;7.40;87.80
55870;DHT22;41790;50.940;4.560;2023-02-11T05:23:06;7.40;87.50
55870;DHT22;41790;50.940;4.560;2023-02-11T05:25:32;7.40;88.00
55870;DHT22;41790;50.940;4.560;2023-02-11T05:27:57;7.40;87.90
55870;DHT22;41790;50.940;4.560;2023-02-11T05:30:23;7.50;87.60
55870;DHT22;41790;50.940;4.560;2023-02-11T05:32:49;7.50;87.40
55870;DHT22;41790;50.940;4.560;2023-02-11T05:35:15;7.60;87.00
55870;DHT22;41790;50.940;4.560;2023-02-11T05:37:41;7.70;87.00
55870;DHT22;41790;50.940;4.560;2023-02-11T05:40:07;7.70;86.70
55870;DHT22;41790;50.940;4.560;2023-02-11T05:42:33;7.70;86.60
55870;DHT22;41790;50.940;4.560;2023-02-11T05:44:59;7.70;86.40
55870;DHT22;41790;50.940;4.560;2023-02-11T05:47:25;7.70;87.00
55870;DHT22;41790;50.940;4.560;2023-02-11T05:49:51;7.70;87.20
55870;DHT22;41790;50.940;4.560;2023-02-11T05:52:21;7.60;87.20
55870;DHT22;41790;50.940;4.560;2023-02-11T05:54:47;7.70;87.00
55870;DHT22;41790;50.940;4.560;2023-02-11T05:57:13;7.80;86.50
55870;DHT22;41790;50.940;4.560;2023-02-11T05:59:39;7.80;86.70
55870;DHT22;41790;50.940;4.560;2023-02-11T06:02:05;7.90;86.80
55870;DHT22;41790;50.940;4.560;2023-02-11T06:04:33;7.80;86.40
55870;DHT22;41790;50.940;4.560;2023-02-11T06:06:59;7.90;86.70
55870;DHT22;41790;50.940;4.560;2023-02-11T06:09:25;7.80;86.40
55870;DHT22;41790;50.940;4.560;2023-02-11T06:11:50;8.00;86.30
55870;DHT22;41790;50.940;4.560;2023-02-11T06:14:16;7.90;86.60
55870;DHT22;41790;50.940;4.560;2023-02-11T06:16:42;7.80;86.50
55870;DHT22;41790;50.940;4.560;2023-02-11T06:19:08;7.90;86.10
55870;DHT22;41790;50.940;4.560;2023-02-11T06:21:33;7.90;86.70
55870;DHT22;41790;50.940;4.560;2023-02-11T06:23:59;7.70;87.40
55870;DHT22;41790;50.940;4.560;2023-02-11T06:26:25;7.70;87.70
55870;DHT22;41790;50.940;4.560;2023-02-11T06:28:51;7.70;87.50
55870;DHT22;41790;50.940;4.560;2023-02-11T06:31:16;7.70;87.70
55870;DHT22;41790;50.940;4.560;2023-02-11T06:33:42;7.60;88.40
55870;DHT22;41790;50.940;4.560;2023-02-11T06:36:14;7.70;88.10
55870;DHT22;41790;50.940;4.560;2023-02-11T06:38:40;7.60;88.00
55870;DHT22;41790;50.940;4.560;2023-02-11T06:41:09;7.60;88.20
55870;DHT22;41790;50.940;4.560;2023-02-11T06:43:35;7.70;87.80
55870;DHT22;41790;50.940;4.560;2023-02-11T06:46:01;7.70;88.20
55870;DHT22;41790;50.940;4.560;2023-02-11T06:48:27;7.50;88.40
55870;DHT22;41790;50.940;4.560;2023-02-11T06:50:53;7.50;88.80
55870;DHT22;41790;50.940;4.560;2023-02-11T06:53:18;7.60;88.70
55870;DHT22;41790;50.940;4.560;2023-02-11T06:55:44;7.70;88.10
55870;DHT22;41790;50.940;4.560;2023-02-11T06:58:10;7.80;87.80
55870;DHT22;41790;50.940;4.560;2023-02-11T07:00:36;7.80;87.80
55870;DHT22;41790;50.940;4.560;2023-02-11T07:03:01;7.80;87.80
55870;DHT22;41790;50.940;4.560;2023-02-11T07:05:27;7.80;87.70
55870;DHT22;41790;50.940;4.560;2023-02-11T07:07:53;7.80;87.40
55870;DHT22;41790;50.940;4.560;2023-02-11T07:10:19;7.90;87.40
55870;DHT22;41790;50.940;4.560;2023-02-11T07:12:44;7.90;87.30
55870;DHT22;41790;50.940;4.560;2023-02-11T07:15:10;7.90;87.40
55870;DHT22;41790;50.940;4.560;2023-02-11T07:17:36;7.80;87.70
55870;DHT22;41790;50.940;4.560;2023-02-11T07:20:02;7.80;87.80
55870;DHT22;41790;50.940;4.560;2023-02-11T07:22:27;8.00;87.40
55870;DHT22;41790;50.940;4.560;2023-02-11T07:24:53;8.00;87.20
55870;DHT22;41790;50.940;4.560;2023-02-11T07:27:19;7.90;87.90
55870;DHT22;41790;50.940;4.560;2023-02-11T07:29:45;7.70;88.60
55870;DHT22;41790;50.940;4.560;2023-02-11T07:32:12;7.80;88.60
55870;DHT22;41790;50.940;4.560;2023-02-11T07:34:38;7.80;88.70
55870;DHT22;41790;50.940;4.560;2023-02-11T07:37:04;7.90;88.40
55870;DHT22;41790;50.940;4.560;2023-02-11T07:39:30;8.00;88.00
55870;DHT22;41790;50.940;4.560;2023-02-11T07:41:55;8.10;87.30
55870;DHT22;41790;50.940;4.560;2023-02-11T07:44:22;8.10;87.20
55870;DHT22;41790;50.940;4.560;2023-02-11T07:46:47;8.20;86.90
55870;DHT22;41790;50.940;4.560;2023-02-11T07:49:14;8.10;87.50
55870;DHT22;41790;50.940;4.560;2023-02-11T07:51:40;8.20;87.10
55870;DHT22;41790;50.940;4.560;2023-02-11T07:54:06;8.10;87.80
55870;DHT22;41790;50.940;4.560;2023-02-11T07:56:33;8.10;87.90
55870;DHT22;41790;50.940;4.560;2023-02-11T07:59:01;8.10;88.10
55870;DHT22;41790;50.940;4.560;2023-02-11T08:01:28;8.30;87.00
55870;DHT22;41790;50.940;4.560;2023-02-11T08:03:56;8.30;86.80
55870;DHT22;41790;50.940;4.560;2023-02-11T08:06:23;8.30;87.20
55870;DHT22;41790;50.940;4.560;2023-02-11T08:08:50;8.40;86.40
55870;DHT22;41790;50.940;4.560;2023-02-11T08:11:18;8.30;87.30
55870;DHT22;41790;50.940;4.560;2023-02-11T08:13:45;8.30;87.50
55870;DHT22;41790;50.940;4.560;2023-02-11T08:16:22;8.20;87.50
55870;DHT22;41790;50.940;4.560;2023-02-11T08:18:50;8.40;87.10
55870;DHT22;41790;50.940;4.560;2023-02-11T08:21:16;8.40;86.60
55870;DHT22;41790;50.940;4.560;2023-02-11T08:23:43;8.50;86.50
55870;DHT22;41790;50.940;4.560;2023-02-11T08:26:12;8.40;86.80
55870;DHT22;41790;50.940;4.560;2023-02-11T08:28:40;8.30;87.20
55870;DHT22;41790;50.940;4.560;2023-02-11T08:31:07;8.40;87.20
55870;DHT22;41790;50.940;4.560;2023-02-11T08:33:34;8.50;86.70
55870;DHT22;41790;50.940;4.560;2023-02-11T08:36:00;8.60;86.50
55870;DHT22;41790;50.940;4.560;2023-02-11T08:38:28;8.50;86.60
55870;DHT22;41790;50.940;4.560;2023-02-11T08:40:53;8.50;86.90
55870;DHT22;41790;50.940;4.560;2023-02-11T08:43:19;8.50;87.00
55870;DHT22;41790;50.940;4.560;2023-02-11T08:45:45;8.60;86.60
55870;DHT22;41790;50.940;4.560;2023-02-11T08:48:11;8.60;85.90
55870;DHT22;41790;50.940;4.560;2023-02-11T08:50:38;8.60;86.40
55870;DHT22;41790;50.940;4.560;2023-02-11T08:53:04;8.60;86.40
55870;DHT22;41790;50.940;4.560;2023-02-11T08:55:30;8.70;86.60
55870;DHT22;41790;50.940;4.560;2023-02-11T08:57:56;8.70;86.00
55870;DHT22;41790;50.940;4.560;2023-02-11T09:00:22;8.70;86.00
55870;DHT22;41790;50.940;4.560;2023-02-11T09:02:48;8.80;85.60
55870;DHT22;41790;50.940;4.560;2023-02-11T09:05:14;8.90;85.40
55870;DHT22;41790;50.940;4.560;2023-02-11T09:07:40;8.80;85.40
55870;DHT22;41790;50.940;4.560;2023-02-11T09:10:06;8.60;86.30
55870;DHT22;41790;50.940;4.560;2023-02-11T09:12:32;8.50;87.10
55870;DHT22;41790;50.940;4.560;2023-02-11T09:14:58;8.40;87.70
55870;DHT22;41790;50.940;4.560;2023-02-11T09:17:24;8.50;87.80
55870;DHT22;41790;50.940;4.560;2023-02-11T09:19:50;8.50;87.40
55870;DHT22;41790;50.940;4.560;2023-02-11T09:22:16;8.50;87.70
55870;DHT22;41790;50.940;4.560;2023-02-11T09:24:42;8.60;87.30
55870;DHT22;41790;50.940;4.560;2023-02-11T09:27:08;8.70;87.00
55870;DHT22;41790;50.940;4.560;2023-02-11T09:29:34;8.70;87.00
55870;DHT22;41790;50.940;4.560;2023-02-11T09:32:00;8.70;86.90
55870;DHT22;41790;50.940;4.560;2023-02-11T09:34:26;8.80;86.70
55870;DHT22;41790;50.940;4.560;2023-02-11T09:36:52;8.80;86.80
55870;DHT22;41790;50.940;4.560;2023-02-11T09:39:18;8.90;86.40
55870;DHT22;41790;50.940;4.560;2023-02-11T09:44:27;8.80;86.80
55870;DHT22;41790;50.940;4.560;2023-02-11T09:46:57;8.90;86.60
55870;DHT22;41790;50.940;4.560;2023-02-11T09:49:52;8.90;86.50
55870;DHT22;41790;50.940;4.560;2023-02-11T09:52:48;8.80;86.90
55870;DHT22;41790;50.940;4.560;2023-02-11T09:55:24;8.70;87.80
55870;DHT22;41790;50.940;4.560;2023-02-11T09:57:51;8.90;87.60
55870;DHT22;41790;50.940;4.560;2023-02-11T10:00:21;9.00;87.10
55870;DHT22;41790;50.940;4.560;2023-02-11T10:03:00;9.10;86.40
55870;DHT22;41790;50.940;4.560;2023-02-11T10:10:51;9.10;86.00
55870;DHT22;41790;50.940;4.560;2023-02-11T10:13:41;9.10;86.50
55870;DHT22;41790;50.940;4.560;2023-02-11T10:16:39;9.10;86.90
55870;DHT22;41790;50.940;4.560;2023-02-11T10:19:30;9.30;86.40
55870;DHT22;41790;50.940;4.560;2023-02-11T10:24:35;9.50;85.30
55870;DHT22;41790;50.940;4.560;2023-02-11T10:27:40;9.50;85.50
55870;DHT22;41790;50.940;4.560;2023-02-11T10:30:05;9.40;85.50
55870;DHT22;41790;50.940;4.560;2023-02-11T10:32:45;9.30;86.00
55870;DHT22;41790;50.940;4.560;2023-02-11T10:35:16;9.40;86.40
55870;DHT22;41790;50.940;4.560;2023-02-11T10:37:43;9.30;86.30
55870;DHT22;41790;50.940;4.560;2023-02-11T10:40:16;9.40;86.10
55870;DHT22;41790;50.940;4.560;2023-02-11T10:42:53;9.60;85.30
55870;DHT22;41790;50.940;4.560;2023-02-11T10:45:29;9.60;85.70
55870;DHT22;41790;50.940;4.560;2023-02-11T10:48:00;9.70;85.70
55870;DHT22;41790;50.940;4.560;2023-02-11T10:50:29;9.60;85.40
55870;DHT22;41790;50.940;4.560;2023-02-11T10:53:18;9.50;85.60
55870;DHT22;41790;50.940;4.560;2023-02-11T10:55:54;9.40;86.70
55870;DHT22;41790;50.940;4.560;2023-02-11T10:58:46;9.50;86.10
55870;DHT22;41790;50.940;4.560;2023-02-11T11:01:18;9.70;85.30
55870;DHT22;41790;50.940;4.560;2023-02-11T11:03:50;9.50;85.70
55870;DHT22;41790;50.940;4.560;2023-02-11T11:06:29;9.40;86.70
55870;DHT22;41790;50.940;4.560;2023-02-11T11:08:56;9.50;87.20
55870;DHT22;41790;50.940;4.560;2023-02-11T11:11:24;9.50;86.70
55870;DHT22;41790;50.940;4.560;2023-02-11T11:13:57;9.50;86.70
55870;DHT22;41790;50.940;4.560;2023-02-11T11:16:36;9.50;86.60
55870;DHT22;41790;50.940;4.560;2023-02-11T11:21:45;9.70;85.80
55870;DHT22;41790;50.940;4.560;2023-02-11T11:24:28;9.70;85.70
55870;DHT22;41790;50.940;4.560;2023-02-11T11:27:00;9.70;85.20
55870;DHT22;41790;50.940;4.560;2023-02-11T11:29:37;9.80;85.00
55870;DHT22;41790;50.940;4.560;2023-02-11T11:34:41;9.80;85.00
55870;DHT22;41790;50.940;4.560;2023-02-11T11:39:58;9.90;85.00
55870;DHT22;41790;50.940;4.560;2023-02-11T11:42:27;10.00;84.30
55870;DHT22;41790;50.940;4.560;2023-02-11T11:44:59;9.80;85.50
55870;DHT22;41790;50.940;4.560;2023-02-11T11:47:32;9.90;84.90
55870;DHT22;41790;50.940;4.560;2023-02-11T11:52:49;9.90;84.20
55870;DHT22;41790;50.940;4.560;2023-02-11T11:57:44;9.90;84.90
55870;DHT22;41790;50.940;4.560;2023-02-11T12:00:20;9.90;84.60
55870;DHT22;41790;50.940;4.560;2023-02-11T12:03:12;9.80;85.00
55870;DHT22;41790;50.940;4.560;2023-02-11T12:14:27;10.00;84.70
55870;DHT22;41790;50.940;4.560;2023-02-11T12:24:59;9.90;85.20
55870;DHT22;41790;50.940;4.560;2023-02-11T12:27:53;9.90;85.00
55870;DHT22;41790;50.940;4.560;2023-02-11T12:36:41;9.70;86.40
55870;DHT22;41790;50.940;4.560;2023-02-11T12:39:25;9.80;86.00
55870;DHT22;41790;50.940;4.560;2023-02-11T12:42:16;9.80;86.50
55870;DHT22;41790;50.940;4.560;2023-02-11T12:47:46;9.90;85.40
55870;DHT22;41790;50.940;4.560;2023-02-11T12:50:26;10.00;85.00
55870;DHT22;41790;50.940;4.560;2023-02-11T12:56:15;10.00;85.00
55870;DHT22;41790;50.940;4.560;2023-02-11T12:58:43;10.10;84.90
55870;DHT22;41790;50.940;4.560;2023-02-11T13:01:28;10.10;84.50
55870;DHT22;41790;50.940;4.560;2023-02-11T13:06:42;10.00;85.10
55870;DHT22;41790;50.940;4.560;2023-02-11T13:09:15;10.20;84.70
55870;DHT22;41790;50.940;4.560;2023-02-11T13:11:46;10.20;84.70
55870;DHT22;41790;50.940;4.560;2023-02-11T13:14:32;10.30;84.10
55870;DHT22;41790;50.940;4.560;2023-02-11T13:17:05;10.10;84.30
55870;DHT22;41790;50.940;4.560;2023-02-11T13:19:45;10.00;85.30
55870;DHT22;41790;50.940;4.560;2023-02-11T13:22:31;10.10;85.00
55870;DHT22;41790;50.940;4.560;2023-02-11T13:27:43;10.10;84.80
55870;DHT22;41790;50.940;4.560;2023-02-11T13:35:36;10.30;84.70
55870;DHT22;41790;50.940;4.560;2023-02-11T13:38:17;10.40;83.90
55870;DHT22;41790;50.940;4.560;2023-02-11T13:40:44;10.40;83.80
55870;DHT22;41790;50.940;4.560;2023-02-11T13:43:32;10.60;82.90
55870;DHT22;41790;50.940;4.560;2023-02-11T13:46:01;10.50;83.20
55870;DHT22;41790;50.940;4.560;2023-02-11T13:48:38;10.50;83.30
55870;DHT22;41790;50.940;4.560;2023-02-11T13:51:12;10.30;83.60
55870;DHT22;41790;50.940;4.560;2023-02-11T13:53:49;10.20;84.20
55870;DHT22;41790;50.940;4.560;2023-02-11T13:56:39;10.20;84.30
55870;DHT22;41790;50.940;4.560;2023-02-11T14:13:31;10.20;84.20
55870;DHT22;41790;50.940;4.560;2023-02-11T14:16:07;10.10;85.10
55870;DHT22;41790;50.940;4.560;2023-02-11T14:21:22;10.30;84.50
55870;DHT22;41790;50.940;4.560;2023-02-11T14:26:45;10.30;84.60
55870;DHT22;41790;50.940;4.560;2023-02-11T14:29:14;10.30;84.30
55870;DHT22;41790;50.940;4.560;2023-02-11T14:31:56;10.20;84.30
55870;DHT22;41790;50.940;4.560;2023-02-11T14:34:50;10.30;84.50
55870;DHT22;41790;50.940;4.560;2023-02-11T14:40:26;10.40;83.80
55870;DHT22;41790;50.940;4.560;2023-02-11T14:42:54;10.50;83.90
55870;DHT22;41790;50.940;4.560;2023-02-11T14:45:28;10.50;83.40
55870;DHT22;41790;50.940;4.560;2023-02-11T14:48:15;10.50;83.20
55870;DHT22;41790;50.940;4.560;2023-02-11T14:50:47;10.30;83.60
55870;DHT22;41790;50.940;4.560;2023-02-11T14:53:18;10.40;83.80
55870;DHT22;41790;50.940;4.560;2023-02-11T14:55:47;10.50;83.40
55870;DHT22;41790;50.940;4.560;2023-02-11T14:58:20;10.50;83.30
55870;DHT22;41790;50.940;4.560;2023-02-11T15:00:53;10.30;84.50
55870;DHT22;41790;50.940;4.560;2023-02-11T15:03:29;10.20;84.70
55870;DHT22;41790;50.940;4.560;2023-02-11T15:05:59;10.10;85.30
55870;DHT22;41790;50.940;4.560;2023-02-11T15:08:27;10.30;84.80
55870;DHT22;41790;50.940;4.560;2023-02-11T15:10:53;10.40;83.90
55870;DHT22;41790;50.940;4.560;2023-02-11T15:13:22;10.40;84.20
55870;DHT22;41790;50.940;4.560;2023-02-11T15:15:56;10.50;83.50
55870;DHT22;41790;50.940;4.560;2023-02-11T15:18:26;10.60;83.30
55870;DHT22;41790;50.940;4.560;2023-02-11T15:20:54;10.60;82.90
55870;DHT22;41790;50.940;4.560;2023-02-11T15:23:26;10.60;83.70
55870;DHT22;41790;50.940;4.560;2023-02-11T15:25:53;10.70;82.60
55870;DHT22;41790;50.940;4.560;2023-02-11T15:28:26;10.70;82.70
55870;DHT22;41790;50.940;4.560;2023-02-11T15:31:13;10.90;82.10
55870;DHT22;41790;50.940;4.560;2023-02-11T15:33:39;10.80;82.10
55870;DHT22;41790;50.940;4.560;2023-02-11T15:36:06;10.70;82.00
55870;DHT22;41790;50.940;4.560;2023-02-11T15:38:32;10.70;82.40
55870;DHT22;41790;50.940;4.560;2023-02-11T15:41:03;10.60;83.00
55870;DHT22;41790;50.940;4.560;2023-02-11T15:43:48;10.60;83.10
55870;DHT22;41790;50.940;4.560;2023-02-11T15:46:22;10.80;82.60
55870;DHT22;41790;50.940;4.560;2023-02-11T15:48:51;10.80;81.90
55870;DHT22;41790;50.940;4.560;2023-02-11T15:51:22;11.00;81.40
55870;DHT22;41790;50.940;4.560;2023-02-11T15:53:55;10.90;81.50
55870;DHT22;41790;50.940;4.560;2023-02-11T15:56:38;11.00;81.40
55870;DHT22;41790;50.940;4.560;2023-02-11T16:01:41;10.50;82.90
55870;DHT22;41790;50.940;4.560;2023-02-11T16:04:16;10.60;83.10
55870;DHT22;41790;50.940;4.560;2023-02-11T16:06:42;10.80;82.80
55870;DHT22;41790;50.940;4.560;2023-02-11T16:14:31;10.80;82.20
55870;DHT22;41790;50.940;4.560;2023-02-11T16:17:12;10.80;82.10
55870;DHT22;41790;50.940;4.560;2023-02-11T16:19:48;10.90;81.60
55870;DHT22;41790;50.940;4.560;2023-02-11T16:22:26;11.00;81.40
55870;DHT22;41790;50.940;4.560;2023-02-11T16:24:54;11.00;80.80
55870;DHT22;41790;50.940;4.560;2023-02-11T16:27:38;11.00;80.80
55870;DHT22;41790;50.940;4.560;2023-02-11T16:30:06;11.00;80.80
55870;DHT22;41790;50.940;4.560;2023-02-11T16:32:45;11.00;81.00
55870;DHT22;41790;50.940;4.560;2023-02-11T16:35:11;10.90;81.40
55870;DHT22;41790;50.940;4.560;2023-02-11T16:37:38;10.90;81.40
55870;DHT22;41790;50.940;4.560;2023-02-11T16:40:05;10.80;81.50
55870;DHT22;41790;50.940;4.560;2023-02-11T16:42:31;10.80;81.80
55870;DHT22;41790;50.940;4.560;2023-02-11T16:44:57;10.70;81.90
55870;DHT22;41790;50.940;4.560;2023-02-11T16:47:26;10.80;81.70
55870;DHT22;41790;50.940;4.560;2023-02-11T16:49:52;10.90;81.20
55870;DHT22;41790;50.940;4.560;2023-02-11T16:52:20;10.80;81.40
55870;DHT22;41790;50.940;4.560;2023-02-11T16:54:46;10.70;81.90
55870;DHT22;41790;50.940;4.560;2023-02-11T16:57:17;10.70;81.90
55870;DHT22;41790;50.940;4.560;2023-02-11T16:59:44;10.70;82.80
55870;DHT22;41790;50.940;4.560;2023-02-11T17:02:17;10.60;82.30
55870;DHT22;41790;50.940;4.560;2023-02-11T17:04:44;10.80;82.20
55870;DHT22;41790;50.940;4.560;2023-02-11T17:07:11;10.80;81.70
55870;DHT22;41790;50.940;4.560;2023-02-11T17:09:36;10.70;81.70
55870;DHT22;41790;50.940;4.560;2023-02-11T17:12:02;10.70;82.10
55870;DHT22;41790;50.940;4.560;2023-02-11T17:14:28;10.70;81.70
55870;DHT22;41790;50.940;4.560;2023-02-11T17:16:53;10.80;81.40
55870;DHT22;41790;50.940;4.560;2023-02-11T17:19:19;10.70;81.40
55870;DHT22;41790;50.940;4.560;2023-02-11T17:21:48;10.60;81.80
55870;DHT22;41790;50.940;4.560;2023-02-11T17:24:14;10.50;82.40
55870;DHT22;41790;50.940;4.560;2023-02-11T17:26:41;10.50;82.50
55870;DHT22;41790;50.940;4.560;2023-02-11T17:29:08;10.70;82.30
55870;DHT22;41790;50.940;4.560;2023-02-11T17:31:34;10.60;82.00
55870;DHT22;41790;50.940;4.560;2023-02-11T17:34:01;10.70;81.90
55870;DHT22;41790;50.940;4.560;2023-02-11T17:36:27;10.80;81.60
55870;DHT22;41790;50.940;4.560;2023-02-11T17:38:56;10.70;81.60
55870;DHT22;41790;50.940;4.560;2023-02-11T17:41:23;10.80;81.60
55870;DHT22;41790;50.940;4.560;2023-02-11T17:43:49;10.80;81.50
55870;DHT22;41790;50.940;4.560;2023-02-11T17:46:15;10.70;81.20
55870;DHT22;41790;50.940;4.560;2023-02-11T17:48:41;10.80;81.30
55870;DHT22;41790;50.940;4.560;2023-02-11T17:51:36;10.70;81.40
55870;DHT22;41790;50.940;4.560;2023-02-11T17:54:05;10.80;80.90
55870;DHT22;41790;50.940;4.560;2023-02-11T17:56:32;10.80;81.10
55870;DHT22;41790;50.940;4.560;2023-02-11T17:58:58;10.50;82.20
55870;DHT22;41790;50.940;4.560;2023-02-11T18:01:27;10.30;82.90
55870;DHT22;41790;50.940;4.560;2023-02-11T18:03:53;10.20;83.70
55870;DHT22;41790;50.940;4.560;2023-02-11T18:06:19;10.10;84.20
55870;DHT22;41790;50.940;4.560;2023-02-11T18:08:46;10.20;83.80